Ce_breeze — ELSQ7 — position and weather

sailwx.info

Track history (hours):
 
Tides and Currents Weather Stations Pressure Air Temp Water Temp Dewpoint Dewpoint Depression Visibility Wind Speed Wind Dir Waves Ship Positions

Ce_breeze

Last reported at 2016-Dec-08 12:19 UTC. Time now 2016-Dec-08 18:18 UTC.
Position N 44°07' E 038°15'.

Length 240 m; draft 8 m.

Type: Tanker. MMSI: 636010400.

Date/timePositionNaut miles runAvg speedWind from/ knotsBaromVisibWave heightAir tempDewpointWater temp
2016-Dec-08 12:19N 44°07' E 038°15'6 0.9
2016-Dec-08 05:13N 44°05' E 038°08'31 2.7
2016-Dec-07 17:33N 44°36' E 038°01'0 0.0
2016-Dec-07 15:09N 44°36' E 038°01'0 0.0
2016-Dec-07 14:31N 44°36' E 038°01'0 0.0
2016-Dec-07 13:33N 44°36' E 038°01'2121.5
2016-Dec-07 12:33N 44°16' E 037°51'2121.3
2016-Dec-07 11:33N 44°36' E 038°01'0 0.0
2016-Dec-07 09:33N 44°36' E 038°01'3012.9
2016-Dec-07 07:12N 44°09' E 037°42'1 2.0
2016-Dec-07 06:33N 44°10' E 037°42'2 1.8
2016-Dec-07 05:33N 44°12' E 037°43'2 1.7
2016-Dec-07 04:12N 44°14' E 037°43'1 1.2
2016-Dec-07 03:15N 44°15' E 037°42'1 0.7
2016-Dec-07 02:16N 44°16' E 037°42'1 1.0
2016-Dec-07 01:27N 44°16' E 037°41'1 1.4
2016-Dec-07 00:31N 44°15' E 037°39'7 2.2
2016-Dec-06 21:25N 44°22' E 037°37'6 6.9
2016-Dec-06 20:30N 44°23' E 037°29'  
Track history (hours):
 
Tides and Currents Weather Stations Pressure Air Temp Water Temp Dewpoint Dewpoint Depression Visibility Wind Speed Wind Dir Waves Ship Positions

Ce_breeze

Last reported at 2016-Dec-08 12:19 UTC. Time now 2016-Dec-08 18:18 UTC.
Position N 44°07' E 038°15'.

Length 240 m; draft 8 m.

Type: Tanker. MMSI: 636010400.

Date/timePositionNaut miles runAvg speedWind from/ knotsBaromVisibWave heightAir tempDewpointWater temp
2016-Dec-08 12:19N 44°07' E 038°15'6 0.9
2016-Dec-08 05:13N 44°05' E 038°08'31 2.7
2016-Dec-07 17:33N 44°36' E 038°01'0 0.0
2016-Dec-07 15:09N 44°36' E 038°01'0 0.0
2016-Dec-07 14:31N 44°36' E 038°01'0 0.0
2016-Dec-07 13:33N 44°36' E 038°01'2121.5
2016-Dec-07 12:33N 44°16' E 037°51'2121.3
2016-Dec-07 11:33N 44°36' E 038°01'0 0.0
2016-Dec-07 09:33N 44°36' E 038°01'3012.9
2016-Dec-07 07:12N 44°09' E 037°42'1 2.0
2016-Dec-07 06:33N 44°10' E 037°42'2 1.8
2016-Dec-07 05:33N 44°12' E 037°43'2 1.7
2016-Dec-07 04:12N 44°14' E 037°43'1 1.2
2016-Dec-07 03:15N 44°15' E 037°42'1 0.7
2016-Dec-07 02:16N 44°16' E 037°42'1 1.0
2016-Dec-07 01:27N 44°16' E 037°41'1 1.4
2016-Dec-07 00:31N 44°15' E 037°39'7 2.2
2016-Dec-06 21:25N 44°22' E 037°37'6 6.9
2016-Dec-06 20:30N 44°23' E 037°29'  

Dump ship's entire track history